Time;durP1;ratioP1;P1;durP2;ratioP2;P2;SDS_P1;SDS_P2;PMS_P1;PMS_P2;Temp;Humidity;BMP_temperature;BMP_pressure;BME280_temperature;BME280_humidity;BME280_pressure;Samples;Min_cycle;Max_cycle;Signal;HPM_P1;HPM_P2
2022/07/12 00:00:06;;;;;;;7.15;4.47;;;14.90;99.90;;;;;;5185895;28;20018;-73
2022/07/12 00:02:36;;;;;;;7.35;4.57;;;15.00;99.90;;;;;;5185831;28;20046;-73
2022/07/12 00:05:07;;;;;;;6.68;4.30;;;14.70;99.90;;;;;;5184882;28;20531;-73
2022/07/12 00:07:39;;;;;;;6.63;4.40;;;14.90;99.90;;;;;;5186005;28;20014;-73
2022/07/12 00:10:09;;;;;;;5.93;4.70;;;14.60;99.90;;;;;;5185948;28;20504;-79
2022/07/12 00:12:41;;;;;;;10.20;4.57;;;14.90;99.90;;;;;;5184679;28;20022;-73
2022/07/12 00:15:12;;;;;;;7.80;4.60;;;14.90;99.90;;;;;;5185945;28;20081;-73
2022/07/12 00:17:43;;;;;;;5.63;4.45;;;14.70;99.90;;;;;;5185918;28;20026;-73
2022/07/12 00:20:13;;;;;;;7.78;4.55;;;14.70;99.90;;;;;;5185810;28;20478;-73
2022/07/12 00:22:46;;;;;;;7.60;4.43;;;14.90;99.90;;;;;;5185965;28;20347;-75
2022/07/12 00:25:17;;;;;;;4.65;4.18;;;14.90;99.90;;;;;;5186048;28;20449;-73
2022/07/12 00:27:47;;;;;;;6.15;4.55;;;14.70;99.90;;;;;;5184746;28;20057;-73
2022/07/12 00:30:18;;;;;;;8.25;4.63;;;14.70;99.90;;;;;;5184543;28;20042;-73
2022/07/12 00:32:49;;;;;;;8.82;4.78;;;14.80;99.90;;;;;;5185906;28;20026;-80
2022/07/12 00:35:20;;;;;;;6.68;3.88;;;14.80;99.90;;;;;;5185932;28;20030;-73
2022/07/12 00:37:51;;;;;;;5.38;4.13;;;14.90;99.90;;;;;;5188168;28;20110;-73
2022/07/12 00:40:22;;;;;;;6.63;4.40;;;14.80;99.90;;;;;;5189405;28;20048;-74
2022/07/12 00:42:53;;;;;;;6.22;4.15;;;14.60;99.90;;;;;;5189394;28;20022;-73
2022/07/12 00:45:24;;;;;;;7.85;4.75;;;14.60;99.90;;;;;;5189520;28;20053;-73
2022/07/12 00:47:54;;;;;;;7.82;4.22;;;14.70;99.90;;;;;;5189026;28;20539;-74
2022/07/12 00:50:25;;;;;;;6.68;4.47;;;14.60;99.90;;;;;;5187694;28;20042;-73
2022/07/12 00:52:56;;;;;;;7.25;4.57;;;14.70;99.90;;;;;;5189188;28;20026;-74
2022/07/12 00:55:27;;;;;;;7.05;4.70;;;14.70;99.90;;;;;;5189134;28;20113;-73
2022/07/12 00:57:58;;;;;;;7.30;3.92;;;14.50;99.90;;;;;;5189121;28;20017;-73
2022/07/12 01:00:29;;;;;;;6.05;4.30;;;14.70;99.90;;;;;;5188795;28;20474;-72
2022/07/12 01:03:02;;;;;;;7.80;4.10;;;14.80;99.90;;;;;;5187655;28;20041;-73
2022/07/12 01:05:32;;;;;;;7.30;4.43;;;14.70;99.90;;;;;;5188747;28;20060;-73
2022/07/12 01:08:04;;;;;;;6.05;4.70;;;14.60;99.90;;;;;;5187662;28;20030;-74
2022/07/12 01:10:44;;;;;;;5.18;4.32;;;14.70;99.90;;;;;;5188654;28;20045;-80
2022/07/12 01:13:23;;;;;;;6.80;3.90;;;14.80;99.90;;;;;;5188976;28;20021;-81
2022/07/12 01:16:02;;;;;;;6.13;4.20;;;14.70;99.90;;;;;;5188808;28;20113;-81
2022/07/12 01:18:37;;;;;;;6.25;4.20;;;14.50;99.90;;;;;;5188749;28;20405;-81
2022/07/12 01:21:17;;;;;;;4.60;4.13;;;14.60;99.90;;;;;;5188722;28;20370;-81
2022/07/12 01:23:50;;;;;;;4.57;4.18;;;14.70;99.90;;;;;;5187467;28;20459;-73
2022/07/12 01:26:21;;;;;;;6.47;4.50;;;14.70;99.90;;;;;;5188408;28;20122;-73
2022/07/12 01:28:53;;;;;;;6.75;4.03;;;14.70;99.90;;;;;;5187178;28;20486;-73
2022/07/12 01:31:24;;;;;;;4.80;4.00;;;14.60;99.90;;;;;;5187974;28;20104;-73
2022/07/12 01:33:56;;;;;;;4.53;4.13;;;14.50;99.90;;;;;;5188393;28;20453;-73
2022/07/12 01:36:27;;;;;;;8.23;3.92;;;14.50;99.90;;;;;;5188355;28;20026;-73
2022/07/12 01:38:58;;;;;;;5.25;4.45;;;14.50;99.90;;;;;;5188285;28;20044;-74
2022/07/12 01:41:30;;;;;;;6.95;4.50;;;14.60;99.90;;;;;;5188033;28;20030;-73
2022/07/12 01:44:01;;;;;;;7.50;4.32;;;14.40;99.90;;;;;;5188266;28;20465;-73
2022/07/12 01:46:32;;;;;;;5.20;4.35;;;14.60;99.90;;;;;;5186944;28;20064;-72
2022/07/12 01:49:03;;;;;;;9.32;4.40;;;14.40;99.90;;;;;;5187965;28;20400;-73
2022/07/12 01:51:34;;;;;;;6.45;4.57;;;14.50;99.90;;;;;;5187708;28;20038;-73
2022/07/12 01:54:06;;;;;;;6.57;4.60;;;14.50;99.90;;;;;;5187991;28;20022;-73
2022/07/12 01:56:37;;;;;;;7.03;4.93;;;14.40;99.90;;;;;;5186684;28;20478;-75
2022/07/12 01:59:08;;;;;;;4.97;4.50;;;14.30;99.90;;;;;;5187896;28;20033;-73
2022/07/12 02:01:40;;;;;;;8.77;4.20;;;14.40;99.90;;;;;;5187467;28;20062;-73
2022/07/12 02:04:11;;;;;;;6.38;4.40;;;14.40;99.90;;;;;;5187822;28;20096;-73
2022/07/12 02:06:42;;;;;;;6.22;4.38;;;14.40;99.90;;;;;;5186416;28;20486;-80
2022/07/12 02:09:14;;;;;;;5.53;4.50;;;14.40;99.90;;;;;;5187723;28;20097;-73
2022/07/12 02:11:46;;;;;;;6.38;4.55;;;14.30;99.90;;;;;;5187393;28;20085;-79
2022/07/12 02:14:17;;;;;;;7.72;5.13;;;14.40;99.90;;;;;;5187624;28;20018;-80
2022/07/12 02:16:48;;;;;;;6.75;4.80;;;14.30;99.90;;;;;;5187180;28;20041;-73
2022/07/12 02:19:19;;;;;;;5.22;4.72;;;14.30;99.90;;;;;;5187533;28;20030;-73
2022/07/12 02:21:50;;;;;;;7.93;4.60;;;14.30;99.90;;;;;;5187312;28;20026;-80
2022/07/12 02:24:21;;;;;;;6.03;4.75;;;14.20;99.90;;;;;;5187497;28;20029;-73
2022/07/12 02:26:52;;;;;;;5.53;4.40;;;14.30;99.90;;;;;;5187404;28;20480;-74
2022/07/12 02:29:22;;;;;;;5.78;4.90;;;14.30;99.90;;;;;;5185821;28;20026;-80
2022/07/12 02:31:53;;;;;;;5.07;4.55;;;14.20;99.90;;;;;;5186776;28;20169;-73
2022/07/12 02:34:24;;;;;;;6.30;4.75;;;14.10;99.90;;;;;;5185992;28;20100;-79
2022/07/12 02:36:55;;;;;;;5.03;4.53;;;14.20;99.90;;;;;;5187315;28;20030;-73
2022/07/12 02:39:26;;;;;;;8.48;4.43;;;14.30;99.90;;;;;;5187190;28;20369;-79
2022/07/12 02:41:57;;;;;;;7.38;4.28;;;14.30;99.90;;;;;;5185871;28;20395;-73
2022/07/12 02:44:27;;;;;;;6.45;4.57;;;14.20;99.90;;;;;;5187144;28;20021;-73
2022/07/12 02:47:00;;;;;;;5.82;4.43;;;14.20;99.90;;;;;;5187168;28;20022;-73
2022/07/12 02:49:31;;;;;;;5.38;4.88;;;14.10;99.90;;;;;;5185727;28;20048;-73
2022/07/12 02:52:01;;;;;;;7.32;4.60;;;14.50;99.90;;;;;;5186881;28;20018;-74
2022/07/12 02:54:32;;;;;;;8.35;4.90;;;13.90;99.90;;;;;;5186926;28;20044;-72
2022/07/12 02:57:03;;;;;;;8.32;4.90;;;14.00;99.90;;;;;;5186667;28;20033;-73
2022/07/12 02:59:34;;;;;;;6.25;4.80;;;14.00;99.90;;;;;;5185169;28;20061;-74
2022/07/12 03:02:05;;;;;;;8.70;5.32;;;14.20;99.90;;;;;;5186553;28;20073;-73
2022/07/12 03:04:36;;;;;;;6.55;5.85;;;14.00;99.90;;;;;;5185582;28;20037;-73
2022/07/12 03:07:07;;;;;;;5.75;4.70;;;14.20;99.90;;;;;;5185509;28;20072;-73
2022/07/12 03:09:37;;;;;;;5.80;5.25;;;14.20;99.90;;;;;;5186581;28;20026;-73
2022/07/12 03:12:08;;;;;;;8.07;4.93;;;14.30;99.90;;;;;;5186590;28;20429;-74
2022/07/12 03:14:39;;;;;;;6.53;4.78;;;14.20;99.90;;;;;;5184868;28;20045;-73
2022/07/12 03:17:10;;;;;;;9.25;4.65;;;14.20;99.90;;;;;;5185376;28;20026;-73
2022/07/12 03:19:40;;;;;;;6.88;4.90;;;14.20;99.90;;;;;;5185256;28;20413;-73
2022/07/12 03:22:11;;;;;;;12.75;4.70;;;14.20;99.90;;;;;;5186504;28;20072;-79
2022/07/12 03:24:42;;;;;;;6.15;5.10;;;14.30;99.90;;;;;;5186602;28;20026;-79
2022/07/12 03:27:13;;;;;;;7.35;4.88;;;14.50;99.90;;;;;;5185117;28;20108;-73
2022/07/12 03:29:44;;;;;;;7.32;4.93;;;14.30;99.90;;;;;;5186129;28;20370;-73
2022/07/12 03:32:14;;;;;;;6.30;5.18;;;14.20;99.90;;;;;;5186181;28;20038;-73
2022/07/12 03:34:45;;;;;;;7.18;5.57;;;14.20;99.90;;;;;;5185074;28;20016;-73
2022/07/12 03:37:16;;;;;;;8.30;5.32;;;14.30;99.90;;;;;;5186487;28;20038;-73
2022/07/12 03:39:47;;;;;;;6.60;4.70;;;14.40;99.90;;;;;;5186333;28;20021;-73
2022/07/12 03:42:18;;;;;;;7.97;4.65;;;14.50;99.90;;;;;;5186228;28;20033;-80
2022/07/12 03:44:48;;;;;;;6.32;5.20;;;14.60;99.90;;;;;;5186110;28;20050;-73
2022/07/12 03:47:19;;;;;;;8.07;4.90;;;14.70;99.90;;;;;;5186291;28;20081;-73
2022/07/12 03:49:50;;;;;;;7.45;4.70;;;14.60;99.90;;;;;;5185873;28;20036;-73
2022/07/12 03:52:21;;;;;;;6.10;4.85;;;14.50;99.90;;;;;;5186220;28;20084;-73
2022/07/12 03:54:51;;;;;;;5.25;4.72;;;14.80;99.90;;;;;;5186299;28;20042;-73
2022/07/12 03:57:22;;;;;;;6.05;4.68;;;14.70;99.90;;;;;;5186186;28;20022;-73
2022/07/12 03:59:53;;;;;;;8.85;4.72;;;14.90;99.90;;;;;;5186113;28;20037;-73
2022/07/12 04:02:24;;;;;;;7.28;5.50;;;14.90;99.90;;;;;;5185640;28;20046;-73
2022/07/12 04:04:55;;;;;;;5.35;4.85;;;14.90;99.90;;;;;;5185930;28;20057;-72
2022/07/12 04:07:26;;;;;;;7.07;5.00;;;15.10;99.90;;;;;;5185021;28;20365;-73
2022/07/12 04:09:56;;;;;;;6.65;4.93;;;15.00;99.90;;;;;;5186036;28;20359;-74
2022/07/12 04:12:27;;;;;;;7.78;4.40;;;15.20;99.90;;;;;;5187662;28;20026;-73
2022/07/12 04:14:58;;;;;;;7.82;5.47;;;15.50;99.90;;;;;;5188770;28;20026;-73
2022/07/12 04:17:29;;;;;;;4.97;4.47;;;15.70;99.90;;;;;;5189825;28;20024;-73
2022/07/12 04:20:00;;;;;;;7.32;5.00;;;16.00;99.90;;;;;;5189782;28;20547;-73
2022/07/12 04:22:31;;;;;;;5.18;4.50;;;15.80;99.90;;;;;;5189809;28;20037;-73
2022/07/12 04:25:01;;;;;;;6.45;4.45;;;16.20;99.90;;;;;;5189728;28;20022;-73
2022/07/12 04:27:32;;;;;;;6.10;5.32;;;16.40;99.90;;;;;;5189098;28;20034;-73
2022/07/12 04:30:04;;;;;;;4.97;4.50;;;16.10;99.90;;;;;;5188237;28;20041;-73
2022/07/12 04:32:34;;;;;;;4.85;4.45;;;16.40;99.90;;;;;;5207222;28;20026;-73
2022/07/12 04:35:06;;;;;;;8.57;5.30;;;16.50;99.90;;;;;;5210072;28;20037;-73
2022/07/12 04:37:36;;;;;;;6.20;4.32;;;16.50;99.90;;;;;;5209921;28;20022;-73
2022/07/12 04:40:09;;;;;;;6.20;4.35;;;16.90;99.90;;;;;;5210027;28;20091;-73
2022/07/12 04:42:39;;;;;;;7.10;4.25;;;17.20;99.90;;;;;;5208157;28;20033;-73
2022/07/12 04:45:10;;;;;;;5.70;4.22;;;17.00;99.90;;;;;;5208516;28;20029;-73
2022/07/12 04:47:41;;;;;;;5.05;3.70;;;17.00;99.90;;;;;;5191998;28;20066;-74
2022/07/12 04:50:12;;;;;;;6.03;3.85;;;17.50;99.90;;;;;;5189313;28;20355;-73
2022/07/12 04:52:43;;;;;;;5.90;3.47;;;17.40;99.90;;;;;;5189077;28;20030;-73
2022/07/12 04:55:14;;;;;;;5.97;4.25;;;17.50;99.90;;;;;;5189358;28;20025;-73
2022/07/12 04:57:44;;;;;;;4.50;3.58;;;17.80;99.90;;;;;;5189161;28;20030;-73
2022/07/12 05:00:15;;;;;;;6.80;3.35;;;18.00;99.90;;;;;;5188801;28;20459;-73
2022/07/12 05:02:46;;;;;;;4.85;3.70;;;18.30;99.90;;;;;;5188677;28;20050;-73
2022/07/12 05:05:17;;;;;;;6.25;3.85;;;18.50;99.90;;;;;;5187788;28;20065;-73
2022/07/12 05:07:48;;;;;;;5.50;4.03;;;18.90;99.90;;;;;;5188859;28;20508;-73
2022/07/12 05:10:19;;;;;;;7.40;3.80;;;19.00;99.90;;;;;;5188766;28;20037;-73
2022/07/12 05:12:49;;;;;;;5.03;3.53;;;19.60;99.90;;;;;;5187545;28;20030;-73
2022/07/12 05:15:20;;;;;;;5.68;3.72;;;19.80;99.90;;;;;;5188884;28;20033;-74
2022/07/12 05:17:51;;;;;;;7.82;3.97;;;20.10;99.90;;;;;;5188132;28;20061;-73
2022/07/12 05:20:22;;;;;;;9.02;4.07;;;20.30;99.90;;;;;;5187594;28;20030;-74
2022/07/12 05:22:53;;;;;;;8.30;4.20;;;20.60;99.90;;;;;;5188180;28;20025;-74
2022/07/12 05:25:24;;;;;;;7.63;4.18;;;20.90;99.90;;;;;;5188648;28;20053;-74
2022/07/12 05:27:55;;;;;;;6.95;3.10;;;20.90;99.90;;;;;;5188537;28;20022;-74
2022/07/12 05:30:26;;;;;;;7.10;3.70;;;21.30;99.90;;;;;;5188158;28;20030;-74
2022/07/12 05:32:56;;;;;;;10.88;3.05;;;21.40;99.90;;;;;;5188457;28;20101;-74
2022/07/12 05:35:27;;;;;;;6.45;2.72;;;21.50;99.90;;;;;;5188564;28;20036;-73
2022/07/12 05:37:58;;;;;;;6.82;2.58;;;21.60;99.90;;;;;;5188286;28;20101;-73
2022/07/12 05:40:29;;;;;;;5.72;2.42;;;21.80;99.90;;;;;;5188162;28;20076;-74
2022/07/12 05:43:00;;;;;;;6.43;2.20;;;21.70;99.90;;;;;;5186946;28;20488;-74
2022/07/12 05:45:30;;;;;;;5.43;1.88;;;21.80;99.90;;;;;;5188212;28;20470;-73
2022/07/12 05:48:01;;;;;;;2.95;2.00;;;21.90;99.90;;;;;;5188207;28;20385;-73
2022/07/12 05:50:32;;;;;;;2.28;1.60;;;21.90;99.90;;;;;;5188036;28;20430;-74
2022/07/12 05:55:53;;;;;;;5.53;1.70;;;21.90;99.90;;;;;;5188445;28;20029;-73
2022/07/12 05:58:25;;;;;;;3.65;2.05;;;22.10;99.90;;;;;;5188033;28;20030;-74
2022/07/12 06:00:55;;;;;;;3.38;1.48;;;22.20;99.90;;;;;;5187468;28;20472;-73
2022/07/12 06:03:26;;;;;;;4.82;1.83;;;22.30;99.90;;;;;;5186678;28;20125;-73
2022/07/12 06:05:57;;;;;;;4.13;2.10;;;22.30;99.90;;;;;;5186532;28;20469;-73
2022/07/12 06:08:28;;;;;;;6.28;1.70;;;22.50;99.90;;;;;;5187746;28;20389;-74
2022/07/12 06:10:59;;;;;;;4.13;1.40;;;22.40;99.90;;;;;;5187559;28;20113;-74
2022/07/12 06:13:29;;;;;;;2.05;0.90;;;22.60;99.90;;;;;;5187732;28;20062;-75
2022/07/12 06:16:00;;;;;;;2.33;1.10;;;22.60;99.90;;;;;;5186445;28;20026;-73
2022/07/12 06:18:32;;;;;;;3.00;1.10;;;22.80;99.90;;;;;;5187431;28;20033;-74
2022/07/12 06:21:03;;;;;;;6.15;1.38;;;22.70;99.90;;;;;;5187669;28;20026;-73
2022/07/12 06:23:34;;;;;;;7.22;1.13;;;22.80;99.90;;;;;;5187423;28;20148;-74
2022/07/12 06:26:05;;;;;;;8.27;1.40;;;22.80;99.90;;;;;;5187584;28;20101;-75
2022/07/12 06:28:36;;;;;;;3.33;1.00;;;22.80;99.90;;;;;;5186056;28;20030;-74
2022/07/12 06:31:07;;;;;;;5.20;1.15;;;23.00;99.90;;;;;;5186947;28;20077;-74
2022/07/12 06:33:38;;;;;;;2.10;1.00;;;23.20;99.90;;;;;;5187095;28;20049;-80
2022/07/12 06:36:09;;;;;;;3.63;1.17;;;23.20;99.90;;;;;;5186687;28;20036;-80
2022/07/12 06:38:40;;;;;;;3.50;1.05;;;23.10;99.90;;;;;;5186798;28;20029;-80
2022/07/12 06:41:11;;;;;;;3.80;1.23;;;23.10;99.90;;;;;;5187125;28;20478;-78
2022/07/12 06:43:41;;;;;;;2.90;1.15;;;23.40;99.90;;;;;;5187162;28;20029;-79
2022/07/12 06:46:13;;;;;;;7.82;1.50;;;23.40;99.90;;;;;;5187076;28;20116;-74
2022/07/12 06:48:44;;;;;;;6.72;1.30;;;23.30;99.90;;;;;;5187080;28;20553;-80
2022/07/12 06:51:14;;;;;;;3.38;1.63;;;23.40;99.90;;;;;;5185712;28;20551;-74
2022/07/12 06:53:45;;;;;;;3.80;1.10;;;23.50;99.90;;;;;;5187000;28;20197;-73
2022/07/12 06:56:16;;;;;;;4.15;1.02;;;23.40;99.90;;;;;;5186654;28;20022;-74
2022/07/12 06:58:47;;;;;;;5.95;1.02;;;23.30;99.90;;;;;;5186579;28;20033;-75
2022/07/12 07:01:18;;;;;;;8.20;1.02;;;23.50;99.90;;;;;;5186318;28;20096;-74
2022/07/12 07:03:48;;;;;;;8.15;1.20;;;23.60;99.90;;;;;;5186867;28;20072;-74
2022/07/12 07:06:19;;;;;;;4.22;1.05;;;23.60;99.90;;;;;;5186761;28;20022;-73
2022/07/12 07:08:50;;;;;;;2.88;0.90;;;23.50;99.90;;;;;;5186709;28;20029;-73
2022/07/12 07:11:21;;;;;;;3.03;1.00;;;23.50;99.90;;;;;;5185457;28;20042;-74
2022/07/12 07:13:53;;;;;;;2.55;0.90;;;23.60;99.90;;;;;;5186738;28;20105;-79
2022/07/12 07:16:24;;;;;;;2.58;0.85;;;23.70;99.90;;;;;;5185382;28;20053;-73
2022/07/12 07:18:55;;;;;;;2.88;1.17;;;23.80;99.90;;;;;;5186643;28;20022;-75
2022/07/12 07:21:26;;;;;;;5.47;1.10;;;23.80;99.90;;;;;;5185447;28;20500;-76
2022/07/12 07:23:57;;;;;;;3.78;1.10;;;23.90;99.90;;;;;;5186727;28;20394;-74
2022/07/12 07:26:27;;;;;;;4.88;0.75;;;24.00;99.90;;;;;;5185322;28;20125;-77
2022/07/12 07:31:48;;;;;;;1.20;0.70;;;23.70;99.90;;;;;;5186418;28;20105;-74
2022/07/12 07:34:18;;;;;;;5.85;1.10;;;23.70;99.90;;;;;;5186506;28;20105;-74
2022/07/12 07:36:50;;;;;;;3.90;0.90;;;24.10;99.90;;;;;;5186309;28;20022;-75
2022/07/12 07:39:21;;;;;;;5.18;0.93;;;24.00;99.90;;;;;;5186272;28;20477;-80
2022/07/12 07:41:51;;;;;;;1.92;0.77;;;24.10;99.90;;;;;;5186326;28;20025;-73
2022/07/12 07:44:22;;;;;;;4.10;0.98;;;24.10;99.90;;;;;;5186230;28;20466;-72
2022/07/12 07:46:53;;;;;;;4.28;1.15;;;24.20;99.90;;;;;;5188791;28;20033;-74
2022/07/12 07:49:24;;;;;;;3.50;0.85;;;24.20;99.90;;;;;;5190369;28;20029;-73
2022/07/12 07:51:55;;;;;;;4.72;1.30;;;24.10;99.90;;;;;;5190370;28;20036;-79
2022/07/12 07:54:25;;;;;;;3.97;1.10;;;24.30;99.90;;;;;;5188976;28;20527;-78
2022/07/12 07:56:56;;;;;;;4.78;1.23;;;24.40;99.90;;;;;;5190420;28;20037;-73
2022/07/12 07:59:27;;;;;;;3.05;1.10;;;24.50;99.90;;;;;;5190184;28;20110;-79
2022/07/12 08:01:58;;;;;;;3.75;1.23;;;24.50;99.90;;;;;;5190073;28;20058;-78
2022/07/12 08:04:29;;;;;;;2.45;1.40;;;24.60;99.90;;;;;;5190304;28;20505;-77
2022/07/12 08:06:59;;;;;;;10.75;1.20;;;24.70;99.90;;;;;;5190297;28;20058;-78
2022/07/12 08:09:30;;;;;;;77.95;6.20;;;24.60;99.90;;;;;;5190035;28;20049;-78
2022/07/12 08:12:01;;;;;;;2.22;0.93;;;24.80;99.90;;;;;;5189918;28;20038;-76
2022/07/12 08:14:32;;;;;;;1.55;0.60;;;24.70;99.90;;;;;;5188745;28;20022;-74
2022/07/12 08:17:03;;;;;;;4.88;0.70;;;24.90;99.90;;;;;;5189968;28;20366;-74
2022/07/12 08:19:34;;;;;;;2.92;0.90;;;24.80;99.90;;;;;;5190131;28;20027;-75
2022/07/12 08:22:05;;;;;;;7.22;1.60;;;24.80;99.90;;;;;;5189855;28;20093;-75
2022/07/12 08:24:35;;;;;;;6.03;1.55;;;24.70;99.90;;;;;;5188571;28;20030;-74
2022/07/12 08:27:06;;;;;;;3.80;1.52;;;25.00;99.90;;;;;;5188721;28;20022;-74
2022/07/12 08:29:37;;;;;;;7.20;2.55;;;25.00;99.90;;;;;;5188145;28;20037;-73
2022/07/12 08:32:08;;;;;;;7.93;2.75;;;25.30;99.90;;;;;;5189500;28;20539;-75
2022/07/12 08:34:39;;;;;;;4.00;1.95;;;25.00;99.90;;;;;;5188282;28;20056;-72
2022/07/12 08:37:10;;;;;;;6.28;0.85;;;25.30;99.90;;;;;;5189311;28;20053;-75
2022/07/12 08:39:41;;;;;;;2.70;0.93;;;25.10;99.90;;;;;;5189457;28;20382;-78
2022/07/12 08:42:15;;;;;;;3.25;0.88;;;25.20;99.90;;;;;;5189486;28;20022;-73
2022/07/12 08:44:54;;;;;;;4.72;2.03;;;25.40;99.90;;;;;;5188248;28;20057;-73
2022/07/12 08:47:26;;;;;;;4.75;1.70;;;25.20;99.90;;;;;;5189457;28;20035;-74
2022/07/12 08:50:21;;;;;;;2.20;1.08;;;25.10;99.90;;;;;;5189188;28;20029;-73
2022/07/12 08:52:53;;;;;;;4.05;1.00;;;25.40;99.90;;;;;;5189319;28;20088;-83
2022/07/12 08:55:29;;;;;;;3.45;1.13;;;25.10;99.90;;;;;;5189230;28;20024;-78
2022/07/12 08:58:02;;;;;;;1.75;0.68;;;25.30;99.90;;;;;;5188450;28;20382;-81
2022/07/12 09:00:33;;;;;;;2.17;0.90;;;25.50;99.90;;;;;;5187723;28;20466;-78
2022/07/12 09:03:06;;;;;;;4.13;1.35;;;25.50;99.90;;;;;;5187869;28;20042;-79
2022/07/12 09:05:37;;;;;;;3.55;2.20;;;25.20;99.90;;;;;;5187920;28;20120;-73
2022/07/12 09:08:10;;;;;;;6.65;2.22;;;25.50;99.90;;;;;;5187411;28;20168;-77
2022/07/12 09:10:50;;;;;;;6.28;3.20;;;25.80;99.90;;;;;;5188994;28;20042;-77
2022/07/12 09:13:41;;;;;;;4.55;2.08;;;25.90;99.90;;;;;;5188850;28;20356;-76
2022/07/12 09:16:14;;;;;;;3.92;1.40;;;25.80;99.90;;;;;;5204055;28;20472;-77
2022/07/12 09:18:45;;;;;;;5.32;1.52;;;25.60;99.90;;;;;;5209415;28;20017;-75
2022/07/12 09:21:27;;;;;;;7.93;2.00;;;25.50;99.90;;;;;;5204600;28;20084;-78
2022/07/12 09:23:59;;;;;;;3.35;1.80;;;25.90;99.90;;;;;;5188665;28;20030;-76
2022/07/12 09:26:32;;;;;;;5.18;1.20;;;26.10;99.90;;;;;;5187486;28;20378;-75
2022/07/12 09:29:07;;;;;;;4.57;0.88;;;25.70;99.90;;;;;;5188750;28;20026;-75
2022/07/12 09:37:27;;;;;;;3.95;1.08;;;25.80;99.90;;;;;;5188564;28;20080;-77
2022/07/12 09:39:58;;;;;;;5.00;1.02;;;25.90;99.90;;;;;;5188410;28;20033;-74
2022/07/12 09:42:29;;;;;;;2.08;0.90;;;26.00;99.90;;;;;;5188445;28;20029;-76
2022/07/12 09:45:01;;;;;;;4.70;1.13;;;26.00;99.90;;;;;;5188381;28;20022;-72
2022/07/12 09:47:33;;;;;;;7.28;3.03;;;26.10;99.90;;;;;;5188246;28;20037;-72
2022/07/12 09:50:07;;;;;;;2.40;0.88;;;26.10;99.90;;;;;;5188067;28;20474;-72
2022/07/12 09:52:39;;;;;;;2.72;0.90;;;25.90;99.90;;;;;;5188289;28;20469;-72
2022/07/12 09:55:13;;;;;;;2.30;0.90;;;26.10;99.90;;;;;;5188118;28;20014;-72
2022/07/12 09:57:46;;;;;;;5.07;1.00;;;26.20;99.90;;;;;;5187991;28;20022;-72
2022/07/12 10:00:16;;;;;;;4.57;0.77;;;26.10;99.90;;;;;;5187929;28;20083;-71
2022/07/12 10:02:49;;;;;;;1.67;0.70;;;26.10;99.90;;;;;;5187737;28;20050;-79
2022/07/12 10:05:20;;;;;;;3.97;0.85;;;26.10;99.90;;;;;;5187790;28;20428;-76
2022/07/12 10:07:52;;;;;;;3.25;0.98;;;26.30;99.90;;;;;;5187956;28;20033;-78
2022/07/12 10:10:24;;;;;;;5.35;1.00;;;26.00;99.90;;;;;;5186568;28;20038;-73
2022/07/12 10:12:56;;;;;;;6.75;1.10;;;26.00;99.90;;;;;;5187525;28;20116;-78
2022/07/12 10:15:30;;;;;;;4.25;1.00;;;26.00;99.90;;;;;;5187264;28;20095;-72
2022/07/12 10:18:02;;;;;;;2.97;0.93;;;26.30;99.90;;;;;;5187254;28;20492;-74
2022/07/12 10:20:33;;;;;;;2.15;1.30;;;26.40;99.90;;;;;;5187525;28;20045;-72
2022/07/12 10:23:25;;;;;;;4.55;1.17;;;26.30;99.90;;;;;;5187778;28;20025;-72
2022/07/12 10:25:56;;;;;;;4.82;1.70;;;26.30;99.90;;;;;;5187354;28;20022;-72
2022/07/12 10:28:59;;;;;;;4.40;1.30;;;26.30;99.90;;;;;;5187373;28;20045;-79
2022/07/12 10:31:35;;;;;;;4.80;1.05;;;26.50;99.90;;;;;;5184941;28;20062;-79
2022/07/12 10:34:10;;;;;;;3.10;1.13;;;26.40;99.90;;;;;;5187055;28;20029;-77
2022/07/12 10:36:55;;;;;;;5.68;1.48;;;26.20;99.90;;;;;;5187309;28;20033;-78
2022/07/12 10:39:28;;;;;;;3.33;0.80;;;26.50;99.90;;;;;;5186926;28;20029;-76
2022/07/12 10:42:07;;;;;;;4.00;0.90;;;26.80;99.90;;;;;;5186940;28;20084;-79
2022/07/12 10:44:39;;;;;;;;;;;26.50;99.90;;;;;;5187395;28;20108;-79
2022/07/12 10:47:12;;;;;;;2.08;1.10;;;26.70;99.90;;;;;;5187018;28;20357;-80
2022/07/12 10:49:50;;;;;;;3.08;1.30;;;26.30;99.90;;;;;;5186920;28;20041;-78
2022/07/12 10:52:26;;;;;;;3.85;2.10;;;26.70;99.90;;;;;;5186976;28;20026;-79
2022/07/12 10:54:57;;;;;;;2.60;1.60;;;27.00;99.90;;;;;;5186700;28;20366;-79
2022/07/12 10:57:57;;;;;;;2.80;1.00;;;26.70;99.90;;;;;;5187004;28;20033;-80
2022/07/12 11:00:28;;;;;;;2.35;0.90;;;26.70;99.90;;;;;;5181448;28;20038;-79
2022/07/12 11:03:04;;;;;;;2.35;0.73;;;26.80;99.90;;;;;;5186668;28;20042;-72
2022/07/12 11:05:35;;;;;;;1.70;0.82;;;26.50;99.90;;;;;;5186781;28;20018;-72
2022/07/12 11:08:13;;;;;;;4.57;2.35;;;26.70;99.90;;;;;;5186906;28;20033;-72
2022/07/12 11:10:59;;;;;;;2.88;1.38;;;27.10;99.90;;;;;;5186673;28;20406;-77
2022/07/12 11:13:30;;;;;;;5.00;2.10;;;26.00;99.90;;;;;;5186681;28;20033;-80
2022/07/12 11:16:01;;;;;;;3.70;1.33;;;27.00;99.90;;;;;;5186637;28;20470;-76
2022/07/12 11:18:35;;;;;;;3.45;1.05;;;27.00;99.90;;;;;;5186885;28;20156;-77
2022/07/12 11:21:06;;;;;;;4.75;1.17;;;26.80;99.90;;;;;;5186429;28;20373;-73
2022/07/12 11:23:40;;;;;;;5.88;1.58;;;27.20;99.90;;;;;;5186615;28;20054;-73
2022/07/12 11:26:13;;;;;;;18.20;2.65;;;27.30;99.90;;;;;;5186638;28;20498;-73
2022/07/12 11:28:45;;;;;;;4.32;0.95;;;26.90;99.90;;;;;;5186521;28;20430;-72
2022/07/12 11:31:17;;;;;;;1.88;0.80;;;26.80;99.90;;;;;;5186430;28;20056;-75
2022/07/12 11:33:50;;;;;;;2.35;0.60;;;26.60;99.90;;;;;;5186429;28;20022;-78
2022/07/12 11:36:27;;;;;;;5.50;0.88;;;26.70;99.90;;;;;;5190837;28;20030;-75
2022/07/12 11:38:58;;;;;;;3.65;1.85;;;26.90;99.90;;;;;;5203692;28;20029;-76
2022/07/12 11:41:30;;;;;;;5.22;1.00;;;26.50;99.90;;;;;;5200111;28;20375;-77
2022/07/12 11:44:01;;;;;;;2.33;0.77;;;26.90;99.90;;;;;;5199590;28;20037;-80
2022/07/12 11:46:32;;;;;;;3.60;0.73;;;26.60;99.90;;;;;;5202408;28;20040;-71
2022/07/12 11:49:03;;;;;;;3.85;1.05;;;26.60;99.90;;;;;;5204365;28;20072;-79
2022/07/12 11:51:35;;;;;;;3.92;0.77;;;26.90;99.90;;;;;;5204399;28;20041;-75
2022/07/12 11:54:06;;;;;;;4.18;1.05;;;25.20;99.90;;;;;;5204185;28;20025;-81
2022/07/12 11:56:37;;;;;;;2.63;0.80;;;27.20;99.90;;;;;;5203914;28;20033;-73
2022/07/12 11:59:08;;;;;;;9.85;1.50;;;26.60;99.90;;;;;;5204110;28;20154;-73
2022/07/12 12:01:39;;;;;;;4.35;1.60;;;26.70;99.90;;;;;;5204138;28;20140;-73
2022/07/12 12:04:11;;;;;;;3.58;1.38;;;26.90;99.90;;;;;;5204143;28;20036;-72
2022/07/12 12:06:42;;;;;;;8.40;1.45;;;27.10;99.90;;;;;;5204180;28;20112;-76
2022/07/12 12:09:13;;;;;;;7.65;1.30;;;27.10;99.90;;;;;;5204040;28;20108;-76
2022/07/12 12:11:44;;;;;;;6.32;1.77;;;26.90;99.90;;;;;;5204043;28;20030;-73
2022/07/12 12:14:14;;;;;;;5.30;2.30;;;26.50;99.90;;;;;;5186239;28;20099;-85
2022/07/12 12:16:46;;;;;;;3.60;1.30;;;26.60;99.90;;;;;;5204210;28;20026;-85
2022/07/12 12:19:17;;;;;;;4.05;1.17;;;26.50;99.90;;;;;;5204143;28;20040;-77
2022/07/12 12:21:48;;;;;;;3.92;1.83;;;27.10;99.90;;;;;;5204345;28;20469;-73
2022/07/12 12:24:19;;;;;;;5.38;2.50;;;27.50;99.90;;;;;;5203930;28;20092;-72
2022/07/12 12:26:51;;;;;;;3.55;1.73;;;27.40;99.90;;;;;;5203815;28;20116;-72
2022/07/12 12:29:40;;;;;;;6.75;2.55;;;27.10;99.90;;;;;;5203676;28;20030;-73
2022/07/12 12:32:19;;;;;;;4.25;1.58;;;27.20;99.90;;;;;;5203681;28;20037;-75
2022/07/12 12:35:10;;;;;;;5.38;1.35;;;27.30;99.90;;;;;;5206989;28;20045;-76
2022/07/12 12:37:48;;;;;;;2.63;1.10;;;27.50;99.90;;;;;;5205201;28;20390;-83
2022/07/12 12:40:22;;;;;;;1.83;1.00;;;27.30;99.90;;;;;;5207107;28;20492;-76
2022/07/12 12:43:07;;;;;;;1.10;0.50;;;27.20;99.90;;;;;;5207059;28;20037;-76
2022/07/12 12:45:54;;;;;;;5.35;1.08;;;26.60;99.90;;;;;;5204972;28;20079;-74
2022/07/12 12:48:30;;;;;;;9.50;1.20;;;27.10;99.90;;;;;;5207208;28;20084;-76
2022/07/12 12:51:11;;;;;;;5.28;1.80;;;27.00;99.90;;;;;;5207568;28;20444;-78
2022/07/12 12:53:42;;;;;;;8.38;3.05;;;27.20;99.90;;;;;;5205239;28;20555;-82
2022/07/12 12:56:14;;;;;;;11.07;3.58;;;27.10;99.90;;;;;;5206744;28;20372;-78
2022/07/12 12:58:48;;;;;;;7.28;2.00;;;27.40;99.90;;;;;;5207293;28;20037;-81
2022/07/12 13:01:19;;;;;;;7.70;1.80;;;27.00;99.90;;;;;;5206966;28;20508;-82
2022/07/12 13:03:50;;;;;;;5.47;1.63;;;27.20;99.90;;;;;;5207578;28;20038;-84
2022/07/12 13:06:22;;;;;;;6.78;2.20;;;27.00;99.90;;;;;;5207355;28;20532;-82
2022/07/12 13:08:53;;;;;;;7.78;1.40;;;27.60;99.90;;;;;;5207395;28;20076;-79
2022/07/12 13:11:24;;;;;;;5.25;1.13;;;27.00;99.90;;;;;;5206854;28;21430;-81
2022/07/12 13:13:55;;;;;;;5.63;1.85;;;27.60;99.90;;;;;;5207152;28;20030;-81
2022/07/12 13:16:26;;;;;;;3.15;1.40;;;27.40;99.90;;;;;;5207055;28;20112;-84
2022/07/12 13:18:57;;;;;;;4.68;0.98;;;27.50;99.90;;;;;;5206880;28;20109;-82
2022/07/12 13:21:28;;;;;;;3.03;0.80;;;26.90;99.90;;;;;;5206969;28;20025;-78
2022/07/12 13:23:59;;;;;;;4.40;0.80;;;26.80;99.90;;;;;;5205805;28;20072;-73